Time;durP1;ratioP1;P1;durP2;ratioP2;P2;SDS_P1;SDS_P2;PMS_P1;PMS_P2;Temp;Humidity;BMP_temperature;BMP_pressure;BME280_temperature;BME280_humidity;BME280_pressure;Samples;Min_cycle;Max_cycle;Signal;HPM_P1;HPM_P2
2023/02/06 00:00:06;;;;;;;8.30;4.78;;;;;;;-0.76;83.48;101822.31;1783479;80;21102;-64
2023/02/06 00:02:36;;;;;;;9.10;4.80;;;;;;;-0.77;83.58;101820.58;1791211;80;21217;-63
2023/02/06 00:05:07;;;;;;;8.95;5.00;;;;;;;-0.77;83.70;101827.30;1783446;80;21565;-64
2023/02/06 00:07:36;;;;;;;8.20;4.72;;;;;;;-0.76;83.86;101813.77;1791064;80;21133;-62
2023/02/06 00:10:07;;;;;;;8.70;4.72;;;;;;;-0.74;83.96;101821.27;1783392;80;21189;-64
2023/02/06 00:12:37;;;;;;;8.43;4.35;;;;;;;-0.75;84.07;101818.66;1759363;80;21146;-64
2023/02/06 00:15:08;;;;;;;10.28;5.10;;;;;;;-0.75;84.20;101822.70;1783199;80;21158;-63
2023/02/06 00:17:38;;;;;;;9.60;5.40;;;;;;;-0.75;84.30;101822.70;1791003;80;21201;-64
2023/02/06 00:20:10;;;;;;;8.88;5.10;;;;;;;-0.76;84.51;101827.69;1790965;80;21114;-63
2023/02/06 00:22:39;;;;;;;9.33;5.00;;;;;;;-0.75;84.67;101824.91;1783508;80;21130;-63
2023/02/06 00:25:09;;;;;;;10.68;5.53;;;;;;;-0.74;84.79;101825.78;1791295;80;21155;-64
2023/02/06 00:27:41;;;;;;;9.40;5.30;;;;;;;-0.74;84.97;101828.47;1783246;80;21579;-64
2023/02/06 00:30:12;;;;;;;9.80;4.97;;;;;;;-0.74;85.12;101829.81;1791121;80;21146;-62
2023/02/06 00:32:42;;;;;;;12.10;5.30;;;;;;;-0.76;85.29;101823.66;1783194;80;21086;-65
2023/02/06 00:35:11;;;;;;;9.90;4.78;;;;;;;-0.77;85.42;101824.14;1790527;80;21110;-64
2023/02/06 00:37:42;;;;;;;8.40;4.65;;;;;;;-0.80;85.49;101820.28;1758943;81;21173;-63
2023/02/06 00:40:11;;;;;;;10.30;5.17;;;;;;;-0.79;85.71;101824.70;1758936;81;21185;-65
2023/02/06 00:42:40;;;;;;;8.88;4.85;;;;;;;-0.80;85.80;101818.94;1783754;80;21622;-66
2023/02/06 00:45:09;;;;;;;10.00;5.40;;;;;;;-0.77;85.96;101816.55;1783785;80;21157;-64
2023/02/06 00:47:40;;;;;;;10.18;5.10;;;;;;;-0.77;85.89;101820.58;1783841;80;21529;-65
2023/02/06 00:50:10;;;;;;;9.18;5.08;;;;;;;-0.79;85.97;101823.84;1783975;80;21143;-63
2023/02/06 00:52:39;;;;;;;9.75;5.20;;;;;;;-0.78;86.06;101820.19;1783905;80;21114;-63
2023/02/06 00:55:08;;;;;;;9.20;5.55;;;;;;;-0.83;86.10;101820.46;1783852;80;21609;-65
2023/02/06 00:57:37;;;;;;;8.25;4.55;;;;;;;-0.80;86.21;101819.41;1783931;80;21596;-64
2023/02/06 01:00:08;;;;;;;8.60;4.62;;;;;;;-0.80;86.30;101822.97;1784039;80;21141;-64
2023/02/06 01:02:37;;;;;;;10.68;5.75;;;;;;;-0.79;86.29;101819.80;1783794;80;21599;-63
2023/02/06 01:05:08;;;;;;;9.60;5.03;;;;;;;-0.76;86.30;101829.04;1783730;80;21185;-63
2023/02/06 01:07:39;;;;;;;9.35;5.03;;;;;;;-0.80;86.21;101821.62;1783772;80;21094;-64
2023/02/06 01:10:09;;;;;;;10.98;5.50;;;;;;;-0.83;86.15;101823.15;1783924;80;21897;-64
2023/02/06 01:12:40;;;;;;;9.38;4.95;;;;;;;-0.87;86.22;101818.91;1784061;80;21161;-64
2023/02/06 01:15:11;;;;;;;9.00;5.25;;;;;;;-0.86;86.34;101817.08;1784029;80;21690;-63
2023/02/06 01:17:41;;;;;;;8.38;5.12;;;;;;;-0.84;86.37;101820.55;1783875;80;21189;-63
2023/02/06 01:20:13;;;;;;;10.20;5.45;;;;;;;-0.84;86.41;101819.20;1783904;80;21110;-64
2023/02/06 01:22:42;;;;;;;10.32;5.28;;;;;;;-0.83;86.36;101824.98;1783825;80;21613;-65
2023/02/06 01:25:13;;;;;;;9.80;5.50;;;;;;;-0.81;86.38;101823.93;1784276;80;21122;-64
2023/02/06 01:27:43;;;;;;;10.18;5.47;;;;;;;-0.80;86.30;101820.76;1784003;80;21534;-65
2023/02/06 01:30:13;;;;;;;9.40;5.08;;;;;;;-0.81;86.18;101820.37;1783802;80;21122;-64
2023/02/06 01:32:44;;;;;;;9.93;5.65;;;;;;;-0.84;86.07;101813.34;1784034;80;21182;-64
2023/02/06 01:35:15;;;;;;;10.08;5.10;;;;;;;-0.82;86.05;101815.95;1684948;85;21118;-64
2023/02/06 01:37:44;;;;;;;11.25;5.78;;;;;;;-0.81;86.06;101813.64;1661805;85;21177;-64
2023/02/06 01:40:14;;;;;;;9.68;4.75;;;;;;;-0.80;85.92;101812.20;1721605;83;21138;-65
2023/02/06 01:42:43;;;;;;;10.23;5.35;;;;;;;-0.83;85.73;101815.08;1721601;83;21158;-65
2023/02/06 01:45:27;;;;;;;9.88;5.50;;;;;;;-0.84;85.65;101815.17;1721626;83;21584;-64
2023/02/06 01:48:07;;;;;;;9.23;5.00;;;;;;;-0.78;85.61;101817.50;1829781;77;22114;-64
2023/02/06 01:50:38;;;;;;;8.58;4.55;;;;;;;-0.83;85.39;101822.28;1724384;83;21162;-65
2023/02/06 01:53:10;;;;;;;11.03;5.78;;;;;;;-0.82;85.27;101818.64;1739989;82;21104;-64
2023/02/06 01:55:40;;;;;;;9.20;5.28;;;;;;;-0.84;85.03;101824.59;1723809;83;21129;-64
2023/02/06 01:58:12;;;;;;;8.95;5.15;;;;;;;-0.85;84.87;101824.20;1740181;82;21574;-64
2023/02/06 02:00:41;;;;;;;9.78;5.65;;;;;;;-0.86;84.71;101833.23;1696620;83;21168;-64
2023/02/06 02:03:10;;;;;;;8.93;4.97;;;;;;;-0.85;84.61;101829.58;1740088;82;21182;-64
2023/02/06 02:05:40;;;;;;;10.00;5.28;;;;;;;-0.88;84.29;101829.76;1724338;83;21173;-65
2023/02/06 02:08:18;;;;;;;9.83;5.53;;;;;;;-0.91;84.07;101831.28;1740106;82;21175;-64
2023/02/06 02:10:48;;;;;;;9.65;5.08;;;;;;;-0.93;84.05;101840.79;1723855;83;21150;-63
2023/02/06 02:13:18;;;;;;;9.60;5.00;;;;;;;-0.96;83.68;101843.66;1740236;82;21531;-64
2023/02/06 02:16:00;;;;;;;10.60;5.67;;;;;;;-1.00;83.69;101840.75;1723798;83;21556;-64
2023/02/06 02:18:51;;;;;;;10.20;5.05;;;;;;;-1.00;83.55;101853.72;1739786;82;21148;-66
2023/02/06 02:22:05;;;;;;;9.60;5.10;;;;;;;-1.03;83.48;101846.31;1723750;83;21149;-64
2023/02/06 02:24:59;;;;;;;8.15;4.67;;;;;;;-1.04;83.39;101848.13;1740212;82;21425;-64
2023/02/06 02:27:47;;;;;;;9.75;4.75;;;;;;;-1.04;83.40;101853.98;1724119;83;21125;-65
2023/02/06 02:30:46;;;;;;;10.25;5.28;;;;;;;-1.05;83.36;101857.16;1713130;82;21171;-63
2023/02/06 02:33:53;;;;;;;9.83;4.97;;;;;;;-1.07;83.24;101859.55;1723998;83;21118;-63
2023/02/06 02:36:34;;;;;;;10.95;5.42;;;;;;;-1.08;83.34;101853.77;1740277;82;21203;-62
2023/02/06 02:39:21;;;;;;;10.13;5.65;;;;;;;-1.06;83.37;101860.80;1724045;83;21138;-63
2023/02/06 02:41:59;;;;;;;7.30;3.98;;;;;;;-1.05;83.37;101859.84;1740452;82;21178;-63
2023/02/06 02:44:49;;;;;;;10.13;5.53;;;;;;;-1.04;83.39;101865.62;1724318;83;21130;-64
2023/02/06 02:47:20;;;;;;;12.57;5.13;;;;;;;-1.06;83.29;101858.59;1673404;85;21606;-64
2023/02/06 02:49:50;;;;;;;9.78;5.10;;;;;;;-1.05;83.39;101867.91;1769616;80;21107;-64
2023/02/06 02:52:20;;;;;;;10.08;4.58;;;;;;;-1.04;83.36;101864.75;1764418;80;21127;-64
2023/02/06 02:54:49;;;;;;;9.60;4.87;;;;;;;-1.06;83.16;101868.88;1783504;80;21127;-64
2023/02/06 02:57:23;;;;;;;8.65;4.80;;;;;;;-1.07;82.92;101865.79;1783392;80;21160;-64
2023/02/06 02:59:52;;;;;;;10.18;5.08;;;;;;;-1.11;82.86;101869.61;1783153;79;21107;-65
2023/02/06 03:02:25;;;;;;;7.95;4.78;;;;;;;-1.12;82.86;101865.19;1782974;80;21103;-64
2023/02/06 03:05:00;;;;;;;10.75;5.45;;;;;;;-1.11;82.75;101872.30;1782836;80;21158;-63
2023/02/06 03:07:38;;;;;;;8.40;4.75;;;;;;;-1.08;82.74;101874.81;1781861;80;21580;-65
2023/02/06 03:10:27;;;;;;;12.40;4.72;;;;;;;-1.07;82.39;101881.92;1782873;80;21095;-64
2023/02/06 03:13:24;;;;;;;8.55;4.62;;;;;;;-1.06;82.15;101878.28;1782838;80;21527;-65
2023/02/06 03:16:31;;;;;;;9.33;5.08;;;;;;;-1.08;81.84;101878.84;1740047;82;21537;-64
2023/02/06 03:19:12;;;;;;;9.50;4.37;;;;;;;-1.05;81.78;101877.33;1782898;80;21111;-63
2023/02/06 03:21:42;;;;;;;8.60;4.47;;;;;;;-1.09;81.63;101886.53;1782757;80;21170;-64
2023/02/06 03:24:17;;;;;;;10.75;4.95;;;;;;;-1.08;81.66;101882.02;1782991;80;21104;-65
2023/02/06 03:26:48;;;;;;;9.85;5.22;;;;;;;-1.11;81.44;101875.47;1782767;80;21147;-64
2023/02/06 03:29:17;;;;;;;8.80;5.15;;;;;;;-1.14;81.35;101875.16;1783088;80;21554;-64
2023/02/06 03:32:12;;;;;;;11.18;5.30;;;;;;;-1.15;81.40;101874.77;1763527;80;21528;-66
2023/02/06 03:34:52;;;;;;;10.18;5.35;;;;;;;-1.15;81.43;101882.84;1726647;80;21119;-63
2023/02/06 03:37:21;;;;;;;9.30;5.00;;;;;;;-1.12;81.42;101886.70;1778989;80;21589;-64
2023/02/06 03:39:52;;;;;;;9.85;5.50;;;;;;;-1.11;81.41;101890.26;1782862;79;21107;-64
2023/02/06 03:42:21;;;;;;;10.13;5.33;;;;;;;-1.11;81.42;101888.91;1782865;79;21530;-64
2023/02/06 03:45:01;;;;;;;11.08;5.97;;;;;;;-1.14;81.42;101889.95;1783030;79;21523;-69
2023/02/06 03:47:31;;;;;;;13.30;6.30;;;;;;;-1.14;81.56;101885.92;1785612;79;21110;-64
2023/02/06 03:49:59;;;;;;;11.97;5.62;;;;;;;-1.11;81.70;101891.60;1788490;80;21118;-63
2023/02/06 03:52:34;;;;;;;11.48;5.85;;;;;;;-1.07;81.78;101891.82;1788573;80;21515;-64
2023/02/06 03:55:08;;;;;;;13.72;5.97;;;;;;;-1.05;81.91;101892.13;1788266;79;21621;-64
2023/02/06 03:57:37;;;;;;;12.40;5.92;;;;;;;-1.03;82.04;101891.56;1788852;80;21100;-63
2023/02/06 04:00:09;;;;;;;12.18;6.40;;;;;;;-0.99;82.10;101896.29;1788233;79;21087;-63
2023/02/06 04:02:41;;;;;;;14.15;6.45;;;;;;;-1.00;82.06;101894.55;1788490;80;21107;-63
2023/02/06 04:05:13;;;;;;;13.35;6.05;;;;;;;-1.04;82.13;101902.41;1771323;80;21162;-64
2023/02/06 04:07:44;;;;;;;11.12;6.03;;;;;;;-1.07;82.30;101887.78;1788262;80;21166;-64
2023/02/06 04:10:14;;;;;;;11.28;5.78;;;;;;;-1.06;82.52;101895.77;1788181;79;21875;-64
2023/02/06 04:12:42;;;;;;;11.95;5.90;;;;;;;-1.05;82.52;101897.98;1788275;80;21103;-65
2023/02/06 04:15:12;;;;;;;11.95;6.12;;;;;;;-1.04;82.64;101895.20;1788328;80;21111;-66
2023/02/06 04:17:41;;;;;;;11.88;5.67;;;;;;;-1.00;82.76;101890.05;1788504;80;21126;-64
2023/02/06 04:20:12;;;;;;;10.70;5.30;;;;;;;-0.98;82.83;101905.62;1785870;80;21115;-64
2023/02/06 04:22:43;;;;;;;12.58;5.83;;;;;;;-0.97;82.83;101902.45;1788405;80;21111;-64
2023/02/06 04:25:13;;;;;;;8.48;4.53;;;;;;;-0.98;82.75;101911.48;1788186;79;21130;-63
2023/02/06 04:27:42;;;;;;;8.55;5.00;;;;;;;-1.00;82.54;101910.22;1788357;80;21134;-64
2023/02/06 04:30:14;;;;;;;9.28;5.05;;;;;;;-1.03;82.47;101903.66;1788253;79;21111;-65
2023/02/06 04:32:44;;;;;;;9.35;4.97;;;;;;;-1.03;82.47;101909.52;1707109;84;21134;-64
2023/02/06 04:35:14;;;;;;;9.68;4.95;;;;;;;-1.01;82.48;101918.37;1707245;84;21569;-65
2023/02/06 04:37:43;;;;;;;9.53;5.17;;;;;;;-0.98;82.38;101916.38;1707289;83;21651;-65
2023/02/06 04:40:13;;;;;;;9.83;4.70;;;;;;;-0.97;82.29;101918.11;1707387;84;21162;-64
2023/02/06 04:42:43;;;;;;;10.48;5.20;;;;;;;-0.94;82.25;101917.55;1707373;84;21585;-64
2023/02/06 04:45:12;;;;;;;7.65;4.60;;;;;;;-0.97;82.07;101919.46;1707143;84;21179;-62
2023/02/06 04:47:43;;;;;;;7.92;4.65;;;;;;;-0.99;82.06;101917.34;1703435;84;21235;-64
2023/02/06 04:50:12;;;;;;;9.40;4.83;;;;;;;-1.01;81.82;101915.20;1716910;80;21194;-65
2023/02/06 04:52:42;;;;;;;8.73;4.60;;;;;;;-1.04;81.85;101931.52;1783055;79;21123;-64
2023/02/06 04:55:12;;;;;;;10.15;5.00;;;;;;;-1.03;81.90;101924.31;1782732;80;21211;-64
2023/02/06 04:57:42;;;;;;;11.22;4.78;;;;;;;-1.03;81.80;101933.25;1782830;79;21154;-63
2023/02/06 05:00:15;;;;;;;9.03;4.67;;;;;;;-1.07;81.75;101930.34;1783450;80;21092;-63
2023/02/06 05:02:45;;;;;;;10.50;4.67;;;;;;;-1.09;81.94;101930.91;1783855;80;21115;-63
2023/02/06 05:05:15;;;;;;;8.80;4.75;;;;;;;-1.10;82.02;101926.95;1782968;80;21151;-64
2023/02/06 05:07:44;;;;;;;8.00;4.62;;;;;;;-1.09;82.04;101930.91;1782775;80;21158;-64
2023/02/06 05:10:14;;;;;;;8.70;4.58;;;;;;;-1.12;81.85;101929.73;1782738;80;21107;-63
2023/02/06 05:12:43;;;;;;;10.40;5.33;;;;;;;-1.15;81.92;101931.25;1782961;80;21115;-64
2023/02/06 05:15:14;;;;;;;10.48;4.47;;;;;;;-1.18;81.94;101932.77;1783210;80;21568;-64
2023/02/06 05:17:44;;;;;;;10.53;5.30;;;;;;;-1.18;82.09;101930.08;1782755;79;21102;-63
2023/02/06 05:20:12;;;;;;;8.60;4.45;;;;;;;-1.16;82.12;101934.89;1763424;80;21114;-64
2023/02/06 05:22:43;;;;;;;8.70;5.00;;;;;;;-1.13;82.08;101936.55;1728678;83;21531;-64
2023/02/06 05:25:13;;;;;;;11.18;5.25;;;;;;;-1.16;81.96;101930.86;1728814;82;21108;-64
2023/02/06 05:27:44;;;;;;;9.80;5.17;;;;;;;-1.15;82.03;101936.62;1728598;83;21131;-64
2023/02/06 05:30:15;;;;;;;11.15;4.70;;;;;;;-1.12;81.97;101939.63;1729071;82;21179;-63
2023/02/06 05:32:45;;;;;;;7.83;4.00;;;;;;;-1.11;81.89;101942.23;1728577;83;21151;-64
2023/02/06 05:35:14;;;;;;;10.58;4.90;;;;;;;-1.14;81.77;101942.40;1728507;83;21127;-65
2023/02/06 05:37:43;;;;;;;9.53;5.05;;;;;;;-1.17;81.67;101945.73;1728870;83;21099;-65
2023/02/06 05:40:13;;;;;;;8.58;4.30;;;;;;;-1.17;81.73;101951.98;1740400;80;21542;-64
2023/02/06 05:42:43;;;;;;;13.55;4.92;;;;;;;-1.18;81.63;101954.75;1782687;80;21111;-64
2023/02/06 05:45:12;;;;;;;15.23;4.90;;;;;;;-1.22;81.63;101950.02;1782803;80;21151;-65
2023/02/06 05:47:42;;;;;;;11.88;5.03;;;;;;;-1.23;81.77;101942.91;1779791;80;21146;-63
2023/02/06 05:50:11;;;;;;;8.38;4.17;;;;;;;-1.24;82.00;101949.23;1774453;81;21166;-63
2023/02/06 05:52:41;;;;;;;8.20;4.37;;;;;;;-1.22;82.09;101958.09;1774443;81;21180;-65
2023/02/06 05:55:12;;;;;;;9.23;4.60;;;;;;;-1.20;82.02;101953.50;1774733;81;21221;-64
2023/02/06 05:57:41;;;;;;;10.93;4.30;;;;;;;-1.23;81.82;101956.36;1774663;81;21111;-64
2023/02/06 06:00:12;;;;;;;8.80;4.60;;;;;;;-1.25;81.96;101952.02;1774616;81;21558;-65
2023/02/06 06:02:43;;;;;;;9.70;4.80;;;;;;;-1.22;82.08;101954.06;1774669;81;21198;-64
2023/02/06 06:05:12;;;;;;;13.55;4.75;;;;;;;-1.21;82.06;101951.76;1774514;81;21121;-66
2023/02/06 06:07:43;;;;;;;10.32;4.70;;;;;;;-1.18;81.99;101952.94;1774506;80;21127;-65
2023/02/06 06:10:13;;;;;;;9.68;4.53;;;;;;;-1.17;81.73;101947.08;1774599;81;21128;-64
2023/02/06 06:12:42;;;;;;;11.90;4.70;;;;;;;-1.20;81.71;101948.12;1774436;79;21116;-65
2023/02/06 06:15:11;;;;;;;8.13;4.47;;;;;;;-1.21;81.87;101950.89;1774416;81;21491;-64
2023/02/06 06:17:41;;;;;;;9.08;4.85;;;;;;;-1.21;81.82;101946.86;1701742;84;21214;-64
2023/02/06 06:20:11;;;;;;;11.10;5.08;;;;;;;-1.21;81.67;101944.17;1701682;84;21123;-63
2023/02/06 06:22:40;;;;;;;13.68;5.17;;;;;;;-1.22;81.71;101950.50;1701657;83;21804;-64
2023/02/06 06:25:10;;;;;;;12.33;5.47;;;;;;;-1.21;81.76;101945.03;1701724;84;22025;-65
2023/02/06 06:27:40;;;;;;;9.35;4.65;;;;;;;-1.20;81.92;101940.52;1627615;88;21151;-63
2023/02/06 06:30:11;;;;;;;12.05;5.00;;;;;;;-1.18;82.00;101942.17;1701527;84;21139;-65
2023/02/06 06:32:42;;;;;;;13.70;5.60;;;;;;;-1.13;82.05;101947.30;1627647;88;21563;-64
2023/02/06 06:35:11;;;;;;;10.18;4.72;;;;;;;-1.10;82.01;101953.86;1719267;81;21116;-66
2023/02/06 06:37:40;;;;;;;12.55;5.65;;;;;;;-1.08;82.01;101947.44;1774453;81;21092;-64
2023/02/06 06:40:10;;;;;;;13.35;4.95;;;;;;;-1.05;82.03;101955.81;1774450;81;21151;-64
2023/02/06 06:42:39;;;;;;;8.95;4.50;;;;;;;-1.05;82.02;101953.99;1774523;81;21103;-63
2023/02/06 06:45:09;;;;;;;15.93;6.53;;;;;;;-1.04;82.03;101967.84;1774738;81;21131;-67
2023/02/06 06:47:38;;;;;;;12.18;5.35;;;;;;;-1.04;82.04;101959.77;1777068;80;21111;-63
2023/02/06 06:50:08;;;;;;;10.30;5.12;;;;;;;-1.03;81.98;101962.84;1788491;80;21138;-64
2023/02/06 06:52:38;;;;;;;10.15;5.45;;;;;;;-1.03;81.87;101957.47;1788273;80;21159;-65
2023/02/06 06:55:08;;;;;;;11.15;5.30;;;;;;;-1.02;81.98;101959.68;1788415;80;21808;-64
2023/02/06 06:57:40;;;;;;;12.23;5.10;;;;;;;-0.97;81.97;101968.36;1788446;80;21103;-68
2023/02/06 07:00:13;;;;;;;11.22;5.55;;;;;;;-0.97;81.73;101969.23;1788633;80;21174;-65
2023/02/06 07:02:42;;;;;;;13.30;5.47;;;;;;;-0.98;81.61;101967.49;1788382;80;21158;-64
2023/02/06 07:05:15;;;;;;;9.68;4.90;;;;;;;-0.95;81.65;101975.87;1788501;80;21158;-66
2023/02/06 07:07:58;;;;;;;10.08;5.00;;;;;;;-0.93;81.65;101973.09;1773621;80;21096;-64
2023/02/06 07:10:30;;;;;;;8.85;4.83;;;;;;;-0.91;81.66;101972.53;1788320;80;21107;-65
2023/02/06 07:13:01;;;;;;;9.95;5.00;;;;;;;-0.90;81.55;101975.61;1788211;80;21130;-64
2023/02/06 07:15:31;;;;;;;12.05;5.35;;;;;;;-0.87;81.57;101971.41;1771267;80;21140;-63
2023/02/06 07:18:02;;;;;;;10.38;5.03;;;;;;;-0.86;81.33;101975.84;1788335;80;21103;-66
2023/02/06 07:20:32;;;;;;;8.93;5.03;;;;;;;-0.89;81.31;101984.95;1788235;80;21130;-65
2023/02/06 07:23:02;;;;;;;11.73;5.10;;;;;;;-0.87;81.34;101979.48;1788156;80;21131;-66
2023/02/06 07:25:33;;;;;;;8.60;4.78;;;;;;;-0.88;81.36;101979.95;1788545;80;21130;-65
2023/02/06 07:28:03;;;;;;;8.28;4.45;;;;;;;-0.90;81.33;101979.17;1788300;80;21115;-64
2023/02/06 07:30:33;;;;;;;12.73;5.45;;;;;;;-0.88;81.44;101989.37;1788233;80;21550;-67
2023/02/06 07:33:05;;;;;;;10.93;5.20;;;;;;;-0.86;81.46;101994.19;1788040;80;21103;-66
2023/02/06 07:35:34;;;;;;;16.00;5.80;;;;;;;-0.88;81.33;101995.23;1788160;80;21210;-65
2023/02/06 07:38:03;;;;;;;12.37;5.42;;;;;;;-0.90;81.37;101998.48;1787911;79;21250;-66
2023/02/06 07:40:33;;;;;;;10.30;4.72;;;;;;;-0.89;81.56;102001.09;1788529;80;21107;-64
2023/02/06 07:43:06;;;;;;;11.30;5.53;;;;;;;-0.88;81.25;102000.14;1787009;80;21123;-64
2023/02/06 07:45:36;;;;;;;10.43;5.10;;;;;;;-0.85;81.35;101996.41;1788150;80;21171;-66
2023/02/06 07:48:06;;;;;;;11.55;5.72;;;;;;;-0.82;81.31;101997.58;1788119;80;21163;-64
2023/02/06 07:50:48;;;;;;;11.05;4.70;;;;;;;-0.79;81.38;101998.28;1788239;80;21150;-64
2023/02/06 07:53:19;;;;;;;9.53;4.85;;;;;;;-0.74;81.06;101998.02;1788442;80;21075;-63
2023/02/06 07:55:48;;;;;;;10.85;5.03;;;;;;;-0.74;80.74;102003.41;1788345;80;21127;-64
2023/02/06 07:58:19;;;;;;;12.13;5.28;;;;;;;-0.73;80.59;102001.97;1788120;79;21530;-65
2023/02/06 08:00:48;;;;;;;15.05;5.33;;;;;;;-0.71;80.48;101993.81;1788369;80;21150;-65
2023/02/06 08:03:19;;;;;;;10.03;5.42;;;;;;;-0.67;80.36;102003.45;1788244;80;21617;-65
2023/02/06 08:05:49;;;;;;;8.60;4.62;;;;;;;-0.65;80.29;101997.06;1788220;80;21111;-64
2023/02/06 08:08:19;;;;;;;11.03;4.92;;;;;;;-0.63;80.10;102005.05;1788081;80;21502;-63
2023/02/06 08:10:50;;;;;;;9.45;5.33;;;;;;;-0.65;79.56;101998.41;1788133;79;21091;-69
2023/02/06 08:13:20;;;;;;;9.83;4.47;;;;;;;-0.62;79.48;101997.36;1788352;80;21095;-65
2023/02/06 08:16:07;;;;;;;9.85;5.20;;;;;;;-0.60;79.22;101996.80;1788432;79;21138;-65
2023/02/06 08:18:37;;;;;;;10.88;5.42;;;;;;;-0.59;78.97;101997.19;1771054;80;21143;-66
2023/02/06 08:21:10;;;;;;;10.03;4.85;;;;;;;-0.58;79.05;101999.41;1788348;79;21147;-63
2023/02/06 08:23:38;;;;;;;11.88;4.53;;;;;;;-0.56;79.16;101997.49;1788297;80;21150;-65
2023/02/06 08:26:14;;;;;;;7.03;4.03;;;;;;;-0.54;79.17;102006.34;1788708;80;21151;-64
2023/02/06 08:28:47;;;;;;;8.48;4.35;;;;;;;-0.54;78.92;102000.48;1788369;79;21146;-65
2023/02/06 08:31:23;;;;;;;9.38;4.90;;;;;;;-0.56;78.58;102020.37;1788328;80;21150;-66
2023/02/06 08:33:53;;;;;;;8.18;4.33;;;;;;;-0.58;78.59;102014.21;1788781;80;21188;-64
2023/02/06 08:36:22;;;;;;;8.75;4.55;;;;;;;-0.56;78.78;102006.44;1788553;80;21107;-65
2023/02/06 08:38:52;;;;;;;11.12;5.00;;;;;;;-0.51;78.70;102015.60;1788538;80;21111;-65
2023/02/06 08:41:27;;;;;;;10.18;5.05;;;;;;;-0.53;78.69;102015.69;1788263;79;21132;-65
2023/02/06 08:44:00;;;;;;;9.28;4.47;;;;;;;-0.52;78.86;102018.77;1770942;80;21158;-65
2023/02/06 08:46:30;;;;;;;8.08;4.72;;;;;;;-0.51;78.67;102021.85;1770846;80;21118;-65
2023/02/06 08:49:04;;;;;;;12.80;6.65;;;;;;;-0.49;78.69;102026.67;1788138;80;21534;-66
2023/02/06 08:51:34;;;;;;;9.63;4.72;;;;;;;-0.47;78.79;102023.41;1788520;79;21131;-66
2023/02/06 08:54:06;;;;;;;8.83;4.50;;;;;;;-0.43;78.68;102019.59;1788290;80;21115;-66
2023/02/06 08:56:36;;;;;;;9.55;4.72;;;;;;;-0.41;78.70;102021.72;1788386;80;21143;-67
2023/02/06 08:59:05;;;;;;;10.05;5.25;;;;;;;-0.39;78.55;102015.77;1796612;80;21142;-66
2023/02/06 09:01:37;;;;;;;11.22;5.10;;;;;;;-0.35;78.61;102014.63;1788649;80;21132;-65
2023/02/06 09:04:09;;;;;;;10.93;5.12;;;;;;;-0.35;78.30;102018.67;1771151;80;21115;-65
2023/02/06 09:06:42;;;;;;;9.25;5.10;;;;;;;-0.33;78.46;102017.24;1788942;80;21527;-66
2023/02/06 09:09:12;;;;;;;8.68;4.72;;;;;;;-0.32;78.72;102018.97;1772803;80;21138;-65
2023/02/06 09:11:43;;;;;;;8.65;4.80;;;;;;;-0.29;78.94;102020.15;1789590;80;21091;-68
2023/02/06 09:14:16;;;;;;;8.95;4.60;;;;;;;-0.25;78.96;102015.45;1788783;80;21257;-66
2023/02/06 09:16:46;;;;;;;13.00;5.50;;;;;;;-0.24;78.79;102018.05;1788398;80;21199;-66
2023/02/06 09:19:16;;;;;;;7.97;4.78;;;;;;;-0.26;78.65;102014.59;1770823;80;21551;-66
2023/02/06 09:21:49;;;;;;;8.90;5.30;;;;;;;-0.22;78.87;102017.97;1776853;80;21087;-66
2023/02/06 09:24:21;;;;;;;9.38;5.45;;;;;;;-0.22;78.83;102015.27;1742083;80;21136;-66
2023/02/06 09:26:55;;;;;;;10.63;5.22;;;;;;;-0.15;79.13;102019.34;1719624;83;21167;-64
2023/02/06 09:29:30;;;;;;;7.37;4.17;;;;;;;-0.12;79.12;102008.39;1715442;82;21142;-66
2023/02/06 09:32:04;;;;;;;10.50;5.10;;;;;;;-0.08;78.91;102009.47;1688059;81;21167;-65
2023/02/06 09:34:35;;;;;;;9.53;4.65;;;;;;;-0.10;78.32;102015.91;1737111;82;21076;-65
2023/02/06 09:37:05;;;;;;;9.90;5.25;;;;;;;-0.17;78.00;102008.66;1740102;82;21171;-66
2023/02/06 09:39:37;;;;;;;9.93;5.62;;;;;;;-0.17;78.14;102018.56;1692221;83;21161;-65
2023/02/06 09:42:20;;;;;;;9.58;4.95;;;;;;;-0.15;78.37;102012.13;1703016;84;21179;-67
2023/02/06 09:44:53;;;;;;;8.58;4.75;;;;;;;-0.15;78.41;102013.96;1692286;85;21573;-67
2023/02/06 09:47:32;;;;;;;11.15;4.95;;;;;;;-0.16;78.12;102020.30;1683191;84;21182;-67
2023/02/06 09:50:27;;;;;;;10.03;4.75;;;;;;;-0.23;77.66;102017.58;1724406;83;21097;-66
2023/02/06 09:53:03;;;;;;;8.88;5.00;;;;;;;-0.28;77.60;102015.63;1725783;83;21137;-68
2023/02/06 09:56:01;;;;;;;14.63;4.80;;;;;;;-0.30;77.58;102015.72;1726058;83;21176;-66
2023/02/06 09:58:51;;;;;;;11.78;4.92;;;;;;;-0.32;77.29;102014.46;1694815;83;21547;-65
2023/02/06 10:01:36;;;;;;;9.58;4.58;;;;;;;-0.36;77.17;102012.03;1725664;83;21187;-66
2023/02/06 10:04:27;;;;;;;9.45;4.47;;;;;;;-0.42;77.32;102010.56;1723923;82;21126;-66
2023/02/06 10:07:20;;;;;;;9.13;4.80;;;;;;;-0.43;77.34;102014.69;1779953;80;21107;-66
2023/02/06 13:17:56;;;;;;;6.00;2.63;;;;;;;-0.87;67.21;101955.27;1829813;77;26347;-68
2023/02/06 13:20:28;;;;;;;10.78;4.37;;;;;;;-0.93;67.29;101966.37;1724083;82;21360;-70
2023/02/06 13:23:17;;;;;;;7.97;3.95;;;;;;;-0.92;67.00;101962.72;1679720;82;21197;-71
2023/02/06 13:25:47;;;;;;;9.10;3.30;;;;;;;-0.97;66.84;101957.12;1724123;82;21203;-69
2023/02/06 13:28:26;;;;;;;8.38;3.50;;;;;;;-0.96;66.95;101964.23;1739951;82;21682;-69
2023/02/06 13:31:06;;;;;;;7.42;3.12;;;;;;;-0.97;66.69;101954.44;1723893;83;21161;-70
2023/02/06 13:33:43;;;;;;;8.30;3.80;;;;;;;-1.00;66.66;101959.98;1739759;82;21253;-69
2023/02/06 13:36:18;;;;;;;;;;;;;;;-0.99;66.79;101968.92;1726564;83;21189;-68
2023/02/06 13:38:47;;;;;;;8.58;3.95;;;;;;;-0.97;67.02;101976.43;1745145;81;20189;-69
2023/02/06 13:41:32;;;;;;;7.35;3.70;;;;;;;-0.94;67.23;101964.63;1753711;80;21181;-69
2023/02/06 13:44:27;;;;;;;6.65;3.75;;;;;;;-0.91;67.41;101982.81;1740132;82;21119;-69
2023/02/06 13:47:23;;;;;;;11.03;4.08;;;;;;;-0.94;66.85;101977.61;1724338;83;21142;-68
2023/02/06 13:50:32;;;;;;;6.45;3.47;;;;;;;-0.97;66.94;101974.61;1738522;82;21174;-72
2023/02/06 13:53:24;;;;;;;7.72;4.10;;;;;;;-0.94;66.75;101977.61;1776101;81;21107;-69
2023/02/06 13:56:20;;;;;;;15.95;4.75;;;;;;;-0.94;66.80;101964.63;1787293;80;21573;-68
2023/02/06 13:58:52;;;;;;;19.55;7.47;;;;;;;-0.92;67.03;101968.11;1789145;80;21114;-69
2023/02/06 14:01:24;;;;;;;8.45;3.35;;;;;;;-0.85;68.85;101972.19;1788384;80;21808;-68
2023/02/06 14:03:53;;;;;;;11.33;4.75;;;;;;;-0.78;67.92;101969.06;1788593;80;21115;-69
2023/02/06 14:06:46;;;;;;;8.98;3.72;;;;;;;-0.77;68.20;101973.50;1788138;80;21099;-69
2023/02/06 14:09:52;;;;;;;6.15;3.08;;;;;;;-0.75;67.75;101974.75;1788686;80;21741;-68
2023/02/06 14:16:09;;;;;;;7.58;3.67;;;;;;;-0.86;68.54;101971.32;1662354;86;21142;-69
2023/02/06 14:18:51;;;;;;;9.83;3.80;;;;;;;-0.84;68.83;101972.58;1651372;86;21292;-69
2023/02/06 14:21:48;;;;;;;6.58;3.42;;;;;;;-0.83;69.20;101978.36;1673745;86;21609;-69
2023/02/06 14:24:39;;;;;;;8.83;3.52;;;;;;;-0.82;69.29;101981.44;1673838;86;21125;-69
2023/02/06 14:27:39;;;;;;;7.85;3.90;;;;;;;-0.81;69.46;101975.10;1673705;86;21173;-69
2023/02/06 14:30:50;;;;;;;6.78;3.50;;;;;;;-0.80;69.66;101983.09;1673462;86;21290;-70
2023/02/06 14:33:46;;;;;;;15.00;4.25;;;;;;;-0.78;69.07;101981.17;1650776;86;21138;-69
2023/02/06 14:36:58;;;;;;;5.70;3.37;;;;;;;-0.79;68.69;101982.61;1673513;86;21210;-69
2023/02/06 14:39:47;;;;;;;10.55;3.83;;;;;;;-0.77;68.44;101984.73;1673286;84;21161;-72
2023/02/06 14:42:31;;;;;;;5.22;2.62;;;;;;;-0.78;68.47;101992.42;1673569;86;21114;-68
2023/02/06 14:45:05;;;;;;;10.90;3.77;;;;;;;-0.79;68.33;101990.20;1673270;86;21639;-69
2023/02/06 14:47:43;;;;;;;18.75;7.65;;;;;;;-0.82;68.30;102007.87;1673455;86;21182;-69
2023/02/06 14:50:23;;;;;;;9.63;3.80;;;;;;;-0.83;68.41;102010.16;1593973;90;21177;-71
2023/02/06 14:52:57;;;;;;;9.85;4.00;;;;;;;-0.83;68.23;102013.34;1615175;88;21166;-70
2023/02/06 14:55:40;;;;;;;7.90;4.03;;;;;;;-0.80;68.17;102014.52;1619708;88;21221;-67
2023/02/06 14:58:26;;;;;;;5.20;3.10;;;;;;;-0.81;67.98;102019.02;1619657;88;21170;-66
2023/02/06 15:00:57;;;;;;;31.00;11.57;;;;;;;-0.80;67.46;102009.13;1619597;88;21188;-68
2023/02/06 15:03:27;;;;;;;8.78;3.22;;;;;;;-0.82;67.54;102015.07;1619688;88;21202;-69
2023/02/06 15:06:06;;;;;;;9.83;3.67;;;;;;;-0.76;67.42;102026.84;1619893;88;21569;-68